sensor_id;sensor_type;location;lat;lon;timestamp;P1;durP1;ratioP1;P2;durP2;ratioP2
33902;SDS011;20194;50.950;5.346;2023-05-10T00:01:48;15.57;;;10.65;;
33902;SDS011;20194;50.950;5.346;2023-05-10T00:04:14;19.45;;;10.90;;
33902;SDS011;20194;50.950;5.346;2023-05-10T00:06:40;18.65;;;10.70;;
33902;SDS011;20194;50.950;5.346;2023-05-10T00:09:05;16.27;;;10.00;;
33902;SDS011;20194;50.950;5.346;2023-05-10T00:11:31;14.75;;;9.93;;
33902;SDS011;20194;50.950;5.346;2023-05-10T00:13:57;13.73;;;9.93;;
33902;SDS011;20194;50.950;5.346;2023-05-10T00:16:23;13.10;;;9.10;;
33902;SDS011;20194;50.950;5.346;2023-05-10T00:18:48;12.35;;;8.70;;
33902;SDS011;20194;50.950;5.346;2023-05-10T00:21:14;13.18;;;8.73;;
33902;SDS011;20194;50.950;5.346;2023-05-10T00:23:40;12.45;;;8.55;;
33902;SDS011;20194;50.950;5.346;2023-05-10T00:26:05;14.30;;;8.90;;
33902;SDS011;20194;50.950;5.346;2023-05-10T00:28:31;13.70;;;8.65;;
33902;SDS011;20194;50.950;5.346;2023-05-10T00:30:57;13.35;;;9.35;;
33902;SDS011;20194;50.950;5.346;2023-05-10T00:33:22;15.13;;;9.05;;
33902;SDS011;20194;50.950;5.346;2023-05-10T00:35:48;15.15;;;9.25;;
33902;SDS011;20194;50.950;5.346;2023-05-10T00:38:14;16.58;;;9.30;;
33902;SDS011;20194;50.950;5.346;2023-05-10T00:40:39;12.30;;;8.73;;
33902;SDS011;20194;50.950;5.346;2023-05-10T00:43:05;18.75;;;9.25;;
33902;SDS011;20194;50.950;5.346;2023-05-10T00:45:32;12.57;;;8.95;;
33902;SDS011;20194;50.950;5.346;2023-05-10T00:47:58;16.38;;;9.20;;
33902;SDS011;20194;50.950;5.346;2023-05-10T00:50:27;15.95;;;8.80;;
33902;SDS011;20194;50.950;5.346;2023-05-10T00:52:53;15.48;;;9.45;;
33902;SDS011;20194;50.950;5.346;2023-05-10T00:55:20;13.75;;;9.02;;
33902;SDS011;20194;50.950;5.346;2023-05-10T00:57:46;16.05;;;8.98;;
33902;SDS011;20194;50.950;5.346;2023-05-10T01:00:12;13.02;;;8.93;;
33902;SDS011;20194;50.950;5.346;2023-05-10T01:02:43;12.13;;;8.60;;
33902;SDS011;20194;50.950;5.346;2023-05-10T01:05:11;18.67;;;9.95;;
33902;SDS011;20194;50.950;5.346;2023-05-10T01:07:37;15.85;;;8.77;;
33902;SDS011;20194;50.950;5.346;2023-05-10T01:10:03;17.05;;;9.32;;
33902;SDS011;20194;50.950;5.346;2023-05-10T01:12:30;15.40;;;8.80;;
33902;SDS011;20194;50.950;5.346;2023-05-10T01:14:55;15.80;;;9.65;;
33902;SDS011;20194;50.950;5.346;2023-05-10T01:17:22;17.83;;;9.30;;
33902;SDS011;20194;50.950;5.346;2023-05-10T01:19:48;13.98;;;9.52;;
33902;SDS011;20194;50.950;5.346;2023-05-10T01:22:22;17.17;;;9.30;;
33902;SDS011;20194;50.950;5.346;2023-05-10T01:31:03;17.63;;;8.90;;
33902;SDS011;20194;50.950;5.346;2023-05-10T01:33:30;13.00;;;8.13;;
33902;SDS011;20194;50.950;5.346;2023-05-10T01:46:58;23.50;;;8.93;;
33902;SDS011;20194;50.950;5.346;2023-05-10T01:49:32;19.83;;;8.43;;
33902;SDS011;20194;50.950;5.346;2023-05-10T01:52:11;20.75;;;9.20;;
33902;SDS011;20194;50.950;5.346;2023-05-10T01:54:41;20.88;;;9.05;;
33902;SDS011;20194;50.950;5.346;2023-05-10T01:57:12;22.95;;;10.27;;
33902;SDS011;20194;50.950;5.346;2023-05-10T01:59:39;22.02;;;9.98;;
33902;SDS011;20194;50.950;5.346;2023-05-10T02:02:08;19.90;;;9.63;;
33902;SDS011;20194;50.950;5.346;2023-05-10T02:04:37;25.42;;;9.90;;
33902;SDS011;20194;50.950;5.346;2023-05-10T02:07:04;18.42;;;9.32;;
33902;SDS011;20194;50.950;5.346;2023-05-10T02:09:31;20.05;;;10.20;;
33902;SDS011;20194;50.950;5.346;2023-05-10T02:11:58;18.60;;;9.70;;
33902;SDS011;20194;50.950;5.346;2023-05-10T02:14:29;22.73;;;11.02;;
33902;SDS011;20194;50.950;5.346;2023-05-10T02:16:57;19.27;;;10.25;;
33902;SDS011;20194;50.950;5.346;2023-05-10T02:19:24;22.83;;;10.85;;
33902;SDS011;20194;50.950;5.346;2023-05-10T02:21:52;21.10;;;10.63;;
33902;SDS011;20194;50.950;5.346;2023-05-10T02:24:19;21.40;;;10.65;;
33902;SDS011;20194;50.950;5.346;2023-05-10T02:26:46;28.80;;;11.90;;
33902;SDS011;20194;50.950;5.346;2023-05-10T02:29:14;19.35;;;11.35;;
33902;SDS011;20194;50.950;5.346;2023-05-10T02:31:41;23.60;;;11.65;;
33902;SDS011;20194;50.950;5.346;2023-05-10T02:34:08;23.67;;;11.25;;
33902;SDS011;20194;50.950;5.346;2023-05-10T02:36:35;24.08;;;12.13;;
33902;SDS011;20194;50.950;5.346;2023-05-10T02:39:02;33.05;;;12.80;;
33902;SDS011;20194;50.950;5.346;2023-05-10T02:41:30;22.63;;;11.75;;
33902;SDS011;20194;50.950;5.346;2023-05-10T02:43:59;24.90;;;11.95;;
33902;SDS011;20194;50.950;5.346;2023-05-10T02:46:26;24.90;;;11.80;;
33902;SDS011;20194;50.950;5.346;2023-05-10T02:48:51;24.70;;;11.73;;
33902;SDS011;20194;50.950;5.346;2023-05-10T02:51:18;19.83;;;11.18;;
33902;SDS011;20194;50.950;5.346;2023-05-10T02:53:47;21.13;;;11.02;;
33902;SDS011;20194;50.950;5.346;2023-05-10T02:56:17;21.38;;;10.70;;
33902;SDS011;20194;50.950;5.346;2023-05-10T02:58:50;30.40;;;12.10;;
33902;SDS011;20194;50.950;5.346;2023-05-10T03:01:17;26.80;;;10.95;;
33902;SDS011;20194;50.950;5.346;2023-05-10T03:03:43;22.50;;;10.55;;
33902;SDS011;20194;50.950;5.346;2023-05-10T03:06:08;25.02;;;11.60;;
33902;SDS011;20194;50.950;5.346;2023-05-10T03:08:34;21.30;;;11.50;;
33902;SDS011;20194;50.950;5.346;2023-05-10T03:16:36;22.58;;;10.70;;
33902;SDS011;20194;50.950;5.346;2023-05-10T03:21:53;23.95;;;10.52;;
33902;SDS011;20194;50.950;5.346;2023-05-10T03:24:22;28.45;;;11.75;;
33902;SDS011;20194;50.950;5.346;2023-05-10T03:26:50;31.40;;;13.68;;
33902;SDS011;20194;50.950;5.346;2023-05-10T03:29:19;27.88;;;11.60;;
33902;SDS011;20194;50.950;5.346;2023-05-10T03:31:46;32.47;;;12.25;;
33902;SDS011;20194;50.950;5.346;2023-05-10T03:34:13;31.67;;;13.50;;
33902;SDS011;20194;50.950;5.346;2023-05-10T03:36:38;26.15;;;12.35;;
33902;SDS011;20194;50.950;5.346;2023-05-10T03:39:04;28.85;;;12.00;;
33902;SDS011;20194;50.950;5.346;2023-05-10T03:41:30;27.90;;;12.98;;
33902;SDS011;20194;50.950;5.346;2023-05-10T03:43:56;30.52;;;13.90;;
33902;SDS011;20194;50.950;5.346;2023-05-10T03:46:21;23.70;;;12.45;;
33902;SDS011;20194;50.950;5.346;2023-05-10T03:48:47;26.40;;;13.02;;
33902;SDS011;20194;50.950;5.346;2023-05-10T03:51:13;23.13;;;12.07;;
33902;SDS011;20194;50.950;5.346;2023-05-10T03:53:38;29.05;;;12.85;;
33902;SDS011;20194;50.950;5.346;2023-05-10T03:56:04;28.67;;;12.52;;
33902;SDS011;20194;50.950;5.346;2023-05-10T03:58:30;29.75;;;13.25;;
33902;SDS011;20194;50.950;5.346;2023-05-10T04:00:55;32.75;;;13.57;;
33902;SDS011;20194;50.950;5.346;2023-05-10T04:03:21;31.77;;;13.02;;
33902;SDS011;20194;50.950;5.346;2023-05-10T04:05:47;28.17;;;13.15;;
33902;SDS011;20194;50.950;5.346;2023-05-10T04:08:12;32.45;;;12.15;;
33902;SDS011;20194;50.950;5.346;2023-05-10T04:10:39;29.73;;;13.98;;
33902;SDS011;20194;50.950;5.346;2023-05-10T04:13:05;25.92;;;12.07;;
33902;SDS011;20194;50.950;5.346;2023-05-10T04:15:31;26.00;;;12.73;;
33902;SDS011;20194;50.950;5.346;2023-05-10T04:17:57;31.02;;;12.82;;
33902;SDS011;20194;50.950;5.346;2023-05-10T04:20:22;22.70;;;12.60;;
33902;SDS011;20194;50.950;5.346;2023-05-10T04:22:49;24.98;;;13.18;;
33902;SDS011;20194;50.950;5.346;2023-05-10T04:25:14;27.73;;;13.30;;
33902;SDS011;20194;50.950;5.346;2023-05-10T04:27:40;29.13;;;13.32;;
33902;SDS011;20194;50.950;5.346;2023-05-10T04:30:06;29.85;;;13.60;;
33902;SDS011;20194;50.950;5.346;2023-05-10T04:32:32;24.33;;;12.57;;
33902;SDS011;20194;50.950;5.346;2023-05-10T04:34:58;24.95;;;12.88;;
33902;SDS011;20194;50.950;5.346;2023-05-10T04:37:24;31.35;;;14.60;;
33902;SDS011;20194;50.950;5.346;2023-05-10T04:39:49;26.13;;;13.63;;
33902;SDS011;20194;50.950;5.346;2023-05-10T04:42:15;28.70;;;14.50;;
33902;SDS011;20194;50.950;5.346;2023-05-10T04:44:41;26.42;;;12.88;;
33902;SDS011;20194;50.950;5.346;2023-05-10T04:47:06;31.20;;;14.57;;
33902;SDS011;20194;50.950;5.346;2023-05-10T04:49:32;28.33;;;13.38;;
33902;SDS011;20194;50.950;5.346;2023-05-10T04:51:58;29.83;;;14.70;;
33902;SDS011;20194;50.950;5.346;2023-05-10T04:54:24;34.80;;;15.02;;
33902;SDS011;20194;50.950;5.346;2023-05-10T04:56:49;31.02;;;14.63;;
33902;SDS011;20194;50.950;5.346;2023-05-10T04:59:15;29.25;;;13.98;;
33902;SDS011;20194;50.950;5.346;2023-05-10T05:01:42;28.48;;;14.02;;
33902;SDS011;20194;50.950;5.346;2023-05-10T05:04:08;36.75;;;15.15;;
33902;SDS011;20194;50.950;5.346;2023-05-10T05:06:34;28.30;;;14.95;;
33902;SDS011;20194;50.950;5.346;2023-05-10T05:08:59;34.65;;;17.92;;
33902;SDS011;20194;50.950;5.346;2023-05-10T05:11:25;32.70;;;17.15;;
33902;SDS011;20194;50.950;5.346;2023-05-10T05:13:51;36.60;;;17.15;;
33902;SDS011;20194;50.950;5.346;2023-05-10T05:16:16;35.72;;;17.65;;
33902;SDS011;20194;50.950;5.346;2023-05-10T05:18:42;30.83;;;16.92;;
33902;SDS011;20194;50.950;5.346;2023-05-10T05:21:15;39.42;;;16.10;;
33902;SDS011;20194;50.950;5.346;2023-05-10T05:23:41;32.60;;;16.77;;
33902;SDS011;20194;50.950;5.346;2023-05-10T05:26:07;32.42;;;16.10;;
33902;SDS011;20194;50.950;5.346;2023-05-10T05:28:32;36.72;;;17.42;;
33902;SDS011;20194;50.950;5.346;2023-05-10T05:31:02;40.40;;;19.48;;
33902;SDS011;20194;50.950;5.346;2023-05-10T05:33:32;33.03;;;17.73;;
33902;SDS011;20194;50.950;5.346;2023-05-10T05:36:00;40.45;;;18.88;;
33902;SDS011;20194;50.950;5.346;2023-05-10T05:38:26;42.22;;;20.63;;
33902;SDS011;20194;50.950;5.346;2023-05-10T05:40:52;47.05;;;21.48;;
33902;SDS011;20194;50.950;5.346;2023-05-10T05:43:18;47.13;;;21.85;;
33902;SDS011;20194;50.950;5.346;2023-05-10T05:45:44;48.50;;;21.35;;
33902;SDS011;20194;50.950;5.346;2023-05-10T05:48:09;49.75;;;22.85;;
33902;SDS011;20194;50.950;5.346;2023-05-10T05:50:35;55.47;;;24.63;;
33902;SDS011;20194;50.950;5.346;2023-05-10T05:53:01;71.63;;;24.60;;
33902;SDS011;20194;50.950;5.346;2023-05-10T05:55:27;55.60;;;23.80;;
33902;SDS011;20194;50.950;5.346;2023-05-10T05:57:53;58.50;;;24.45;;
33902;SDS011;20194;50.950;5.346;2023-05-10T06:00:19;54.60;;;24.58;;
33902;SDS011;20194;50.950;5.346;2023-05-10T06:02:46;51.25;;;23.13;;
33902;SDS011;20194;50.950;5.346;2023-05-10T06:05:11;52.60;;;23.35;;
33902;SDS011;20194;50.950;5.346;2023-05-10T06:07:39;55.10;;;23.63;;
33902;SDS011;20194;50.950;5.346;2023-05-10T06:10:07;52.35;;;21.77;;
33902;SDS011;20194;50.950;5.346;2023-05-10T06:12:33;53.83;;;23.92;;
33902;SDS011;20194;50.950;5.346;2023-05-10T06:14:59;48.92;;;22.25;;
33902;SDS011;20194;50.950;5.346;2023-05-10T06:17:25;51.13;;;22.08;;
33902;SDS011;20194;50.950;5.346;2023-05-10T06:19:51;48.08;;;21.27;;
33902;SDS011;20194;50.950;5.346;2023-05-10T06:22:17;50.25;;;20.67;;
33902;SDS011;20194;50.950;5.346;2023-05-10T06:24:43;46.28;;;20.77;;
33902;SDS011;20194;50.950;5.346;2023-05-10T06:27:09;46.30;;;21.48;;
33902;SDS011;20194;50.950;5.346;2023-05-10T06:29:35;50.47;;;22.92;;
33902;SDS011;20194;50.950;5.346;2023-05-10T06:32:01;47.13;;;21.52;;
33902;SDS011;20194;50.950;5.346;2023-05-10T06:34:27;57.38;;;25.00;;
33902;SDS011;20194;50.950;5.346;2023-05-10T06:36:52;53.80;;;24.00;;
33902;SDS011;20194;50.950;5.346;2023-05-10T06:39:18;49.05;;;22.40;;
33902;SDS011;20194;50.950;5.346;2023-05-10T06:41:44;53.30;;;24.15;;
33902;SDS011;20194;50.950;5.346;2023-05-10T06:44:09;56.42;;;23.95;;
33902;SDS011;20194;50.950;5.346;2023-05-10T06:46:35;53.55;;;23.58;;
33902;SDS011;20194;50.950;5.346;2023-05-10T06:49:01;47.78;;;23.05;;
33902;SDS011;20194;50.950;5.346;2023-05-10T06:51:27;53.70;;;22.80;;
33902;SDS011;20194;50.950;5.346;2023-05-10T06:53:53;51.15;;;20.98;;
33902;SDS011;20194;50.950;5.346;2023-05-10T06:56:20;56.42;;;22.95;;
33902;SDS011;20194;50.950;5.346;2023-05-10T06:58:47;61.58;;;22.88;;
33902;SDS011;20194;50.950;5.346;2023-05-10T07:01:13;59.88;;;24.85;;
33902;SDS011;20194;50.950;5.346;2023-05-10T07:03:39;59.78;;;25.10;;
33902;SDS011;20194;50.950;5.346;2023-05-10T07:06:05;56.30;;;23.42;;
33902;SDS011;20194;50.950;5.346;2023-05-10T07:08:32;60.22;;;23.58;;
33902;SDS011;20194;50.950;5.346;2023-05-10T07:11:02;62.90;;;24.17;;
33902;SDS011;20194;50.950;5.346;2023-05-10T07:13:30;62.95;;;23.08;;
33902;SDS011;20194;50.950;5.346;2023-05-10T07:15:56;57.97;;;23.83;;
33902;SDS011;20194;50.950;5.346;2023-05-10T07:18:23;59.47;;;23.98;;
33902;SDS011;20194;50.950;5.346;2023-05-10T07:20:49;61.28;;;24.55;;
33902;SDS011;20194;50.950;5.346;2023-05-10T07:23:15;62.60;;;25.63;;
33902;SDS011;20194;50.950;5.346;2023-05-10T07:25:44;55.88;;;22.08;;
33902;SDS011;20194;50.950;5.346;2023-05-10T07:28:14;53.80;;;22.45;;
33902;SDS011;20194;50.950;5.346;2023-05-10T07:30:41;58.15;;;23.27;;
33902;SDS011;20194;50.950;5.346;2023-05-10T07:33:07;59.25;;;22.90;;
33902;SDS011;20194;50.950;5.346;2023-05-10T07:35:34;67.15;;;25.15;;
33902;SDS011;20194;50.950;5.346;2023-05-10T07:38:00;59.28;;;23.98;;
33902;SDS011;20194;50.950;5.346;2023-05-10T07:40:26;59.53;;;23.33;;
33902;SDS011;20194;50.950;5.346;2023-05-10T07:42:53;63.22;;;24.95;;
33902;SDS011;20194;50.950;5.346;2023-05-10T07:45:18;59.40;;;23.83;;
33902;SDS011;20194;50.950;5.346;2023-05-10T07:47:44;52.60;;;24.27;;
33902;SDS011;20194;50.950;5.346;2023-05-10T07:50:10;53.13;;;22.70;;
33902;SDS011;20194;50.950;5.346;2023-05-10T07:52:36;51.58;;;22.00;;
33902;SDS011;20194;50.950;5.346;2023-05-10T07:55:02;49.80;;;21.77;;
33902;SDS011;20194;50.950;5.346;2023-05-10T07:57:27;55.35;;;22.70;;
33902;SDS011;20194;50.950;5.346;2023-05-10T07:59:53;59.03;;;23.48;;
33902;SDS011;20194;50.950;5.346;2023-05-10T08:02:19;51.70;;;23.00;;
33902;SDS011;20194;50.950;5.346;2023-05-10T08:04:44;50.60;;;20.90;;
33902;SDS011;20194;50.950;5.346;2023-05-10T08:07:10;46.25;;;20.25;;
33902;SDS011;20194;50.950;5.346;2023-05-10T08:09:36;45.17;;;21.05;;
33902;SDS011;20194;50.950;5.346;2023-05-10T08:12:02;40.90;;;19.98;;
33902;SDS011;20194;50.950;5.346;2023-05-10T08:14:28;41.50;;;19.48;;
33902;SDS011;20194;50.950;5.346;2023-05-10T08:16:54;39.60;;;19.13;;
33902;SDS011;20194;50.950;5.346;2023-05-10T08:19:21;38.65;;;18.58;;
33902;SDS011;20194;50.950;5.346;2023-05-10T08:21:48;36.10;;;17.55;;
33902;SDS011;20194;50.950;5.346;2023-05-10T08:24:14;9.95;;;5.80;;
33902;SDS011;20194;50.950;5.346;2023-05-10T08:26:39;9.35;;;5.18;;
33902;SDS011;20194;50.950;5.346;2023-05-10T08:29:05;6.20;;;3.83;;
33902;SDS011;20194;50.950;5.346;2023-05-10T08:31:31;4.22;;;3.08;;
33902;SDS011;20194;50.950;5.346;2023-05-10T08:33:57;4.80;;;3.28;;
33902;SDS011;20194;50.950;5.346;2023-05-10T08:36:23;5.00;;;2.97;;
33902;SDS011;20194;50.950;5.346;2023-05-10T08:38:52;5.80;;;2.97;;
33902;SDS011;20194;50.950;5.346;2023-05-10T08:41:20;7.05;;;3.22;;
33902;SDS011;20194;50.950;5.346;2023-05-10T08:43:46;7.80;;;3.85;;
33902;SDS011;20194;50.950;5.346;2023-05-10T08:46:16;6.05;;;3.30;;
33902;SDS011;20194;50.950;5.346;2023-05-10T08:48:45;10.18;;;3.28;;
33902;SDS011;20194;50.950;5.346;2023-05-10T08:51:13;7.30;;;3.42;;
33902;SDS011;20194;50.950;5.346;2023-05-10T08:53:43;9.35;;;4.00;;
33902;SDS011;20194;50.950;5.346;2023-05-10T08:56:09;11.88;;;4.10;;
33902;SDS011;20194;50.950;5.346;2023-05-10T08:58:36;6.05;;;3.50;;
33902;SDS011;20194;50.950;5.346;2023-05-10T09:01:03;7.10;;;3.80;;
33902;SDS011;20194;50.950;5.346;2023-05-10T09:03:30;7.53;;;3.53;;
33902;SDS011;20194;50.950;5.346;2023-05-10T09:05:56;5.75;;;3.55;;
33902;SDS011;20194;50.950;5.346;2023-05-10T09:08:25;4.65;;;3.22;;
33902;SDS011;20194;50.950;5.346;2023-05-10T09:10:51;5.32;;;3.72;;
33902;SDS011;20194;50.950;5.346;2023-05-10T09:13:18;6.38;;;4.10;;
33902;SDS011;20194;50.950;5.346;2023-05-10T09:15:45;7.07;;;3.78;;
33902;SDS011;20194;50.950;5.346;2023-05-10T09:18:11;9.77;;;5.50;;
33902;SDS011;20194;50.950;5.346;2023-05-10T09:20:37;7.38;;;5.32;;
33902;SDS011;20194;50.950;5.346;2023-05-10T09:23:02;9.10;;;4.90;;
33902;SDS011;20194;50.950;5.346;2023-05-10T09:25:28;8.80;;;4.47;;
33902;SDS011;20194;50.950;5.346;2023-05-10T09:27:54;8.95;;;4.72;;
33902;SDS011;20194;50.950;5.346;2023-05-10T09:30:24;8.73;;;4.70;;
33902;SDS011;20194;50.950;5.346;2023-05-10T09:32:53;11.10;;;4.97;;
33902;SDS011;20194;50.950;5.346;2023-05-10T09:35:21;8.88;;;4.97;;
33902;SDS011;20194;50.950;5.346;2023-05-10T09:37:52;12.88;;;5.93;;
33902;SDS011;20194;50.950;5.346;2023-05-10T09:40:19;10.43;;;5.30;;
33902;SDS011;20194;50.950;5.346;2023-05-10T09:45:28;11.45;;;5.93;;
33902;SDS011;20194;50.950;5.346;2023-05-10T09:47:55;9.50;;;5.95;;
33902;SDS011;20194;50.950;5.346;2023-05-10T09:50:22;10.80;;;6.32;;
33902;SDS011;20194;50.950;5.346;2023-05-10T09:55:16;13.82;;;7.13;;
33902;SDS011;20194;50.950;5.346;2023-05-10T09:57:50;15.45;;;7.13;;
33902;SDS011;20194;50.950;5.346;2023-05-10T10:00:24;15.95;;;8.02;;
33902;SDS011;20194;50.950;5.346;2023-05-10T10:02:54;18.63;;;8.65;;
33902;SDS011;20194;50.950;5.346;2023-05-10T10:05:27;15.98;;;7.75;;
33902;SDS011;20194;50.950;5.346;2023-05-10T10:08:05;22.17;;;8.95;;
33902;SDS011;20194;50.950;5.346;2023-05-10T10:10:31;19.35;;;9.18;;
33902;SDS011;20194;50.950;5.346;2023-05-10T10:12:58;20.98;;;10.55;;
33902;SDS011;20194;50.950;5.346;2023-05-10T10:15:25;16.00;;;8.90;;
33902;SDS011;20194;50.950;5.346;2023-05-10T10:17:51;17.70;;;8.43;;
33902;SDS011;20194;50.950;5.346;2023-05-10T10:20:18;18.42;;;10.15;;
33902;SDS011;20194;50.950;5.346;2023-05-10T10:22:45;21.92;;;9.48;;
33902;SDS011;20194;50.950;5.346;2023-05-10T10:25:12;18.98;;;10.15;;
33902;SDS011;20194;50.950;5.346;2023-05-10T10:30:24;21.90;;;10.57;;
33902;SDS011;20194;50.950;5.346;2023-05-10T10:35:40;19.40;;;9.88;;
33902;SDS011;20194;50.950;5.346;2023-05-10T10:38:08;21.65;;;10.10;;
33902;SDS011;20194;50.950;5.346;2023-05-10T10:40:34;17.98;;;9.57;;
33902;SDS011;20194;50.950;5.346;2023-05-10T10:48:49;21.20;;;9.80;;
33902;SDS011;20194;50.950;5.346;2023-05-10T10:51:32;17.85;;;9.15;;
33902;SDS011;20194;50.950;5.346;2023-05-10T10:54:11;15.95;;;9.35;;
33902;SDS011;20194;50.950;5.346;2023-05-10T10:56:37;16.15;;;8.30;;
33902;SDS011;20194;50.950;5.346;2023-05-10T10:59:03;17.55;;;9.32;;
33902;SDS011;20194;50.950;5.346;2023-05-10T11:01:35;14.73;;;8.50;;
33902;SDS011;20194;50.950;5.346;2023-05-10T11:06:33;15.15;;;8.40;;
33902;SDS011;20194;50.950;5.346;2023-05-10T11:09:10;14.07;;;7.82;;
33902;SDS011;20194;50.950;5.346;2023-05-10T11:11:52;13.15;;;7.65;;
33902;SDS011;20194;50.950;5.346;2023-05-10T11:14:20;13.75;;;7.78;;
33902;SDS011;20194;50.950;5.346;2023-05-10T11:16:47;14.98;;;7.63;;
33902;SDS011;20194;50.950;5.346;2023-05-10T11:19:13;13.35;;;7.50;;
33902;SDS011;20194;50.950;5.346;2023-05-10T11:24:30;12.02;;;7.05;;
33902;SDS011;20194;50.950;5.346;2023-05-10T11:26:56;13.80;;;7.28;;
33902;SDS011;20194;50.950;5.346;2023-05-10T11:29:22;12.43;;;7.28;;
33902;SDS011;20194;50.950;5.346;2023-05-10T11:31:48;13.40;;;6.90;;
33902;SDS011;20194;50.950;5.346;2023-05-10T11:36:51;11.45;;;7.03;;
33902;SDS011;20194;50.950;5.346;2023-05-10T11:39:18;11.20;;;6.47;;
33902;SDS011;20194;50.950;5.346;2023-05-10T11:41:46;11.38;;;6.85;;
33902;SDS011;20194;50.950;5.346;2023-05-10T11:44:14;11.43;;;6.20;;
33902;SDS011;20194;50.950;5.346;2023-05-10T11:46:39;8.30;;;5.60;;
33902;SDS011;20194;50.950;5.346;2023-05-10T11:49:06;10.18;;;6.20;;
33902;SDS011;20194;50.950;5.346;2023-05-10T11:51:35;11.40;;;7.03;;
33902;SDS011;20194;50.950;5.346;2023-05-10T11:54:04;9.43;;;6.05;;
33902;SDS011;20194;50.950;5.346;2023-05-10T11:56:32;8.27;;;5.68;;
33902;SDS011;20194;50.950;5.346;2023-05-10T11:58:59;9.25;;;5.47;;
33902;SDS011;20194;50.950;5.346;2023-05-10T12:01:26;7.95;;;5.15;;
33902;SDS011;20194;50.950;5.346;2023-05-10T12:03:54;7.75;;;5.20;;
33902;SDS011;20194;50.950;5.346;2023-05-10T12:06:25;7.60;;;4.57;;
33902;SDS011;20194;50.950;5.346;2023-05-10T12:08:52;8.35;;;4.50;;
33902;SDS011;20194;50.950;5.346;2023-05-10T12:11:18;10.38;;;5.80;;
33902;SDS011;20194;50.950;5.346;2023-05-10T12:13:46;8.30;;;4.68;;
33902;SDS011;20194;50.950;5.346;2023-05-10T12:16:16;10.00;;;5.40;;
33902;SDS011;20194;50.950;5.346;2023-05-10T12:18:43;6.22;;;4.25;;
33902;SDS011;20194;50.950;5.346;2023-05-10T12:21:11;7.43;;;4.40;;
33902;SDS011;20194;50.950;5.346;2023-05-10T12:23:37;7.70;;;5.00;;
33902;SDS011;20194;50.950;5.346;2023-05-10T12:26:04;8.27;;;4.40;;
33902;SDS011;20194;50.950;5.346;2023-05-10T12:28:31;5.90;;;4.38;;
33902;SDS011;20194;50.950;5.346;2023-05-10T12:30:58;6.70;;;4.10;;
33902;SDS011;20194;50.950;5.346;2023-05-10T12:33:25;7.53;;;4.80;;
33902;SDS011;20194;50.950;5.346;2023-05-10T12:35:53;7.57;;;4.68;;
33902;SDS011;20194;50.950;5.346;2023-05-10T12:38:26;6.35;;;4.18;;
33902;SDS011;20194;50.950;5.346;2023-05-10T12:41:04;9.02;;;5.00;;
33902;SDS011;20194;50.950;5.346;2023-05-10T12:43:31;7.35;;;4.32;;
33902;SDS011;20194;50.950;5.346;2023-05-10T12:45:58;8.57;;;4.03;;
33902;SDS011;20194;50.950;5.346;2023-05-10T12:48:28;6.15;;;3.92;;
33902;SDS011;20194;50.950;5.346;2023-05-10T12:50:56;5.82;;;4.30;;
33902;SDS011;20194;50.950;5.346;2023-05-10T12:53:21;7.43;;;5.40;;
33902;SDS011;20194;50.950;5.346;2023-05-10T12:55:47;7.68;;;4.15;;
33902;SDS011;20194;50.950;5.346;2023-05-10T12:58:13;8.65;;;4.35;;
33902;SDS011;20194;50.950;5.346;2023-05-10T13:00:39;5.50;;;3.85;;
33902;SDS011;20194;50.950;5.346;2023-05-10T13:03:05;6.25;;;4.20;;
33902;SDS011;20194;50.950;5.346;2023-05-10T13:05:33;5.35;;;3.97;;
33902;SDS011;20194;50.950;5.346;2023-05-10T13:07:59;7.25;;;3.05;;
33902;SDS011;20194;50.950;5.346;2023-05-10T13:10:25;5.75;;;3.60;;
33902;SDS011;20194;50.950;5.346;2023-05-10T13:12:51;4.40;;;2.78;;
33902;SDS011;20194;50.950;5.346;2023-05-10T13:15:16;4.07;;;2.55;;
33902;SDS011;20194;50.950;5.346;2023-05-10T13:17:42;5.40;;;3.30;;
33902;SDS011;20194;50.950;5.346;2023-05-10T13:20:08;3.58;;;2.65;;
33902;SDS011;20194;50.950;5.346;2023-05-10T13:22:35;5.57;;;2.30;;
33902;SDS011;20194;50.950;5.346;2023-05-10T13:25:01;3.30;;;2.22;;
33902;SDS011;20194;50.950;5.346;2023-05-10T13:27:27;3.47;;;2.63;;
33902;SDS011;20194;50.950;5.346;2023-05-10T13:29:52;3.40;;;2.20;;
33902;SDS011;20194;50.950;5.346;2023-05-10T13:32:18;2.55;;;2.35;;
33902;SDS011;20194;50.950;5.346;2023-05-10T13:34:44;4.38;;;2.15;;
33902;SDS011;20194;50.950;5.346;2023-05-10T13:37:10;3.03;;;2.42;;
33902;SDS011;20194;50.950;5.346;2023-05-10T13:39:36;3.28;;;2.67;;
33902;SDS011;20194;50.950;5.346;2023-05-10T13:42:03;3.00;;;2.20;;
33902;SDS011;20194;50.950;5.346;2023-05-10T13:44:30;3.97;;;1.98;;
33902;SDS011;20194;50.950;5.346;2023-05-10T13:46:56;4.00;;;2.50;;
33902;SDS011;20194;50.950;5.346;2023-05-10T13:49:22;5.60;;;2.38;;
33902;SDS011;20194;50.950;5.346;2023-05-10T13:51:48;2.70;;;2.13;;
33902;SDS011;20194;50.950;5.346;2023-05-10T13:54:13;6.28;;;1.98;;
33902;SDS011;20194;50.950;5.346;2023-05-10T13:56:39;2.05;;;1.67;;
33902;SDS011;20194;50.950;5.346;2023-05-10T13:59:07;2.65;;;2.10;;
33902;SDS011;20194;50.950;5.346;2023-05-10T14:01:33;1.67;;;1.50;;
33902;SDS011;20194;50.950;5.346;2023-05-10T14:03:59;1.83;;;1.38;;
33902;SDS011;20194;50.950;5.346;2023-05-10T14:06:25;3.05;;;1.60;;
33902;SDS011;20194;50.950;5.346;2023-05-10T14:08:52;2.47;;;1.60;;
33902;SDS011;20194;50.950;5.346;2023-05-10T14:11:18;1.80;;;1.40;;
33902;SDS011;20194;50.950;5.346;2023-05-10T14:13:44;2.88;;;1.63;;
33902;SDS011;20194;50.950;5.346;2023-05-10T14:16:10;2.40;;;1.50;;
33902;SDS011;20194;50.950;5.346;2023-05-10T14:18:36;2.47;;;2.28;;
33902;SDS011;20194;50.950;5.346;2023-05-10T14:21:03;1.92;;;1.83;;
33902;SDS011;20194;50.950;5.346;2023-05-10T14:23:29;2.60;;;2.40;;
33902;SDS011;20194;50.950;5.346;2023-05-10T14:25:55;3.22;;;2.55;;
33902;SDS011;20194;50.950;5.346;2023-05-10T14:28:21;3.35;;;2.85;;
33902;SDS011;20194;50.950;5.346;2023-05-10T14:30:48;3.10;;;2.35;;
33902;SDS011;20194;50.950;5.346;2023-05-10T14:33:14;3.15;;;2.70;;
33902;SDS011;20194;50.950;5.346;2023-05-10T14:35:40;4.20;;;2.92;;
33902;SDS011;20194;50.950;5.346;2023-05-10T14:38:06;3.65;;;2.55;;
33902;SDS011;20194;50.950;5.346;2023-05-10T14:40:32;3.92;;;2.88;;
33902;SDS011;20194;50.950;5.346;2023-05-10T14:42:58;2.83;;;2.53;;
33902;SDS011;20194;50.950;5.346;2023-05-10T14:45:24;4.72;;;3.13;;
33902;SDS011;20194;50.950;5.346;2023-05-10T14:47:49;4.50;;;2.63;;
33902;SDS011;20194;50.950;5.346;2023-05-10T14:50:15;5.18;;;3.30;;
33902;SDS011;20194;50.950;5.346;2023-05-10T14:52:44;5.75;;;2.70;;
33902;SDS011;20194;50.950;5.346;2023-05-10T14:55:10;3.85;;;3.42;;
33902;SDS011;20194;50.950;5.346;2023-05-10T14:57:36;4.35;;;2.97;;
33902;SDS011;20194;50.950;5.346;2023-05-10T15:00:02;3.17;;;2.60;;
33902;SDS011;20194;50.950;5.346;2023-05-10T15:02:30;4.40;;;2.70;;
33902;SDS011;20194;50.950;5.346;2023-05-10T15:04:56;3.53;;;2.80;;
33902;SDS011;20194;50.950;5.346;2023-05-10T15:07:22;3.50;;;2.72;;
33902;SDS011;20194;50.950;5.346;2023-05-10T15:09:48;2.80;;;2.42;;
33902;SDS011;20194;50.950;5.346;2023-05-10T15:12:15;3.85;;;2.50;;
33902;SDS011;20194;50.950;5.346;2023-05-10T15:14:41;4.13;;;2.45;;
33902;SDS011;20194;50.950;5.346;2023-05-10T15:17:06;3.72;;;2.38;;
33902;SDS011;20194;50.950;5.346;2023-05-10T15:19:32;3.28;;;2.25;;
33902;SDS011;20194;50.950;5.346;2023-05-10T15:21:58;3.53;;;2.25;;